sensor_id;sensor_type;location;lat;lon;timestamp;pressure;altitude;pressure_sealevel;temperature;humidity
7058;BME280;3570;43.080;25.628;2023-01-27T00:02:19;-19473.72;;;0.70;100.00
7058;BME280;3570;43.080;25.628;2023-01-27T00:05:04;-19477.25;;;0.82;100.00
7058;BME280;3570;43.080;25.628;2023-01-27T00:07:48;-19474.03;;;0.71;100.00
7058;BME280;3570;43.080;25.628;2023-01-27T00:10:32;-19480.63;;;0.94;100.00
7058;BME280;3570;43.080;25.628;2023-01-27T00:13:16;-19475.50;;;0.76;100.00
7058;BME280;3570;43.080;25.628;2023-01-27T00:16:14;-19474.03;;;0.71;100.00
7058;BME280;3570;43.080;25.628;2023-01-27T00:18:58;-19476.66;;;0.80;100.00
7058;BME280;3570;43.080;25.628;2023-01-27T00:21:42;-19473.13;;;0.68;100.00
7058;BME280;3570;43.080;25.628;2023-01-27T00:24:45;-19472.56;;;0.66;100.00
7058;BME280;3570;43.080;25.628;2023-01-27T00:27:29;-19471.97;;;0.64;100.00
7058;BME280;3570;43.080;25.628;2023-01-27T00:30:13;-19462.56;;;0.32;100.00
7058;BME280;3570;43.080;25.628;2023-01-27T00:32:57;-19473.72;;;0.70;100.00
7058;BME280;3570;43.080;25.628;2023-01-27T00:36:05;-19476.53;;;0.80;100.00
7058;BME280;3570;43.080;25.628;2023-01-27T00:38:50;-19473.88;;;0.71;100.00
7058;BME280;3570;43.080;25.628;2023-01-27T00:41:34;-19480.19;;;0.92;100.00
7058;BME280;3570;43.080;25.628;2023-01-27T00:44:18;-19472.41;;;0.66;100.00
7058;BME280;3570;43.080;25.628;2023-01-27T00:47:02;-19472.56;;;0.66;100.00
7058;BME280;3570;43.080;25.628;2023-01-27T00:49:46;-19471.97;;;0.64;100.00
7058;BME280;3570;43.080;25.628;2023-01-27T00:52:30;-19473.88;;;0.71;100.00
7058;BME280;3570;43.080;25.628;2023-01-27T00:55:14;-19474.75;;;0.74;100.00
7058;BME280;3570;43.080;25.628;2023-01-27T00:57:59;-19460.22;;;0.24;100.00
7058;BME280;3570;43.080;25.628;2023-01-27T01:00:43;-19470.78;;;0.60;100.00
7058;BME280;3570;43.080;25.628;2023-01-27T01:03:29;-19468.16;;;0.51;100.00
7058;BME280;3570;43.080;25.628;2023-01-27T01:06:18;-19464.03;;;0.37;100.00
7058;BME280;3570;43.080;25.628;2023-01-27T01:09:02;-19468.72;;;0.53;100.00
7058;BME280;3570;43.080;25.628;2023-01-27T01:11:46;-19468.16;;;0.51;100.00
7058;BME280;3570;43.080;25.628;2023-01-27T01:14:30;-19469.91;;;0.57;100.00
7058;BME280;3570;43.080;25.628;2023-01-27T01:17:14;-19477.41;;;0.83;100.00
7058;BME280;3570;43.080;25.628;2023-01-27T01:19:58;-19474.03;;;0.71;100.00
7058;BME280;3570;43.080;25.628;2023-01-27T01:22:42;-19481.81;;;0.98;100.00
7058;BME280;3570;43.080;25.628;2023-01-27T01:25:26;-19475.06;;;0.75;100.00
7058;BME280;3570;43.080;25.628;2023-01-27T01:28:10;-19487.53;;;1.18;100.00
7058;BME280;3570;43.080;25.628;2023-01-27T01:30:54;-19485.94;;;1.12;100.00
7058;BME280;3570;43.080;25.628;2023-01-27T01:33:39;-19482.69;;;1.01;100.00
7058;BME280;3570;43.080;25.628;2023-01-27T01:36:23;-19487.84;;;1.19;100.00
7058;BME280;3570;43.080;25.628;2023-01-27T01:39:07;-19490.03;;;1.26;100.00
7058;BME280;3570;43.080;25.628;2023-01-27T01:41:51;-19481.66;;;0.98;100.00
7058;BME280;3570;43.080;25.628;2023-01-27T01:44:35;-19473.13;;;0.68;100.00
7058;BME280;3570;43.080;25.628;2023-01-27T01:47:20;-19467.69;;;0.50;100.00
7058;BME280;3570;43.080;25.628;2023-01-27T01:50:04;-19469.75;;;0.57;100.00
7058;BME280;3570;43.080;25.628;2023-01-27T01:52:48;-19467.41;;;0.49;100.00
7058;BME280;3570;43.080;25.628;2023-01-27T01:55:33;-19472.56;;;0.66;100.00
7058;BME280;3570;43.080;25.628;2023-01-27T01:58:19;-19466.69;;;0.46;100.00
7058;BME280;3570;43.080;25.628;2023-01-27T02:01:04;-19469.75;;;0.57;100.00
7058;BME280;3570;43.080;25.628;2023-01-27T02:03:52;-19467.56;;;0.49;100.00
7058;BME280;3570;43.080;25.628;2023-01-27T02:06:44;-19472.25;;;0.65;100.00
7058;BME280;3570;43.080;25.628;2023-01-27T02:09:30;-19471.66;;;0.63;100.00
7058;BME280;3570;43.080;25.628;2023-01-27T02:12:14;-19471.22;;;0.62;100.00
7058;BME280;3570;43.080;25.628;2023-01-27T02:14:58;-19472.25;;;0.65;100.00
7058;BME280;3570;43.080;25.628;2023-01-27T02:17:42;-19474.31;;;0.72;100.00
7058;BME280;3570;43.080;25.628;2023-01-27T02:20:38;-19476.81;;;0.81;100.00
7058;BME280;3570;43.080;25.628;2023-01-27T02:29:09;-19481.81;;;0.98;100.00
7058;BME280;3570;43.080;25.628;2023-01-27T02:31:54;-19475.50;;;0.76;100.00
7058;BME280;3570;43.080;25.628;2023-01-27T02:34:38;-19471.53;;;0.63;100.00
7058;BME280;3570;43.080;25.628;2023-01-27T02:37:23;-19472.25;;;0.65;100.00
7058;BME280;3570;43.080;25.628;2023-01-27T02:40:08;-19463.00;;;0.34;100.00
7058;BME280;3570;43.080;25.628;2023-01-27T02:42:55;-19468.00;;;0.51;100.00
7058;BME280;3570;43.080;25.628;2023-01-27T02:45:40;-19463.72;;;0.36;100.00
7058;BME280;3570;43.080;25.628;2023-01-27T02:48:24;-19471.38;;;0.62;100.00
7058;BME280;3570;43.080;25.628;2023-01-27T02:51:08;-19462.41;;;0.32;100.00
7058;BME280;3570;43.080;25.628;2023-01-27T02:53:52;-19469.19;;;0.55;100.00
7058;BME280;3570;43.080;25.628;2023-01-27T02:56:36;-19470.78;;;0.60;100.00
7058;BME280;3570;43.080;25.628;2023-01-27T02:59:20;-19469.63;;;0.56;100.00
7058;BME280;3570;43.080;25.628;2023-01-27T03:02:04;-19467.13;;;0.48;100.00
7058;BME280;3570;43.080;25.628;2023-01-27T03:04:50;-19466.69;;;0.46;100.00
7058;BME280;3570;43.080;25.628;2023-01-27T03:07:33;-19459.03;;;0.20;100.00
7058;BME280;3570;43.080;25.628;2023-01-27T03:10:17;-19471.09;;;0.61;100.00
7058;BME280;3570;43.080;25.628;2023-01-27T03:13:02;-19474.91;;;0.74;100.00
7058;BME280;3570;43.080;25.628;2023-01-27T03:15:46;-19476.66;;;0.80;100.00
7058;BME280;3570;43.080;25.628;2023-01-27T03:18:49;-19464.03;;;0.37;100.00
7058;BME280;3570;43.080;25.628;2023-01-27T03:21:34;-19472.56;;;0.66;100.00
7058;BME280;3570;43.080;25.628;2023-01-27T03:24:18;-19463.59;;;0.36;100.00
7058;BME280;3570;43.080;25.628;2023-01-27T03:27:02;-19471.81;;;0.64;100.00
7058;BME280;3570;43.080;25.628;2023-01-27T03:29:46;-19469.91;;;0.57;100.00
7058;BME280;3570;43.080;25.628;2023-01-27T03:32:39;-19481.81;;;0.98;100.00
7058;BME280;3570;43.080;25.628;2023-01-27T03:35:29;-19485.50;;;1.11;100.00
7058;BME280;3570;43.080;25.628;2023-01-27T03:38:16;-19486.38;;;1.14;100.00
7058;BME280;3570;43.080;25.628;2023-01-27T03:41:19;-19481.22;;;0.96;100.00
7058;BME280;3570;43.080;25.628;2023-01-27T03:44:22;-19479.31;;;0.89;100.00
7058;BME280;3570;43.080;25.628;2023-01-27T03:47:25;-19481.06;;;0.95;100.00
7058;BME280;3570;43.080;25.628;2023-01-27T03:50:10;-19476.38;;;0.79;100.00
7058;BME280;3570;43.080;25.628;2023-01-27T03:52:56;-19474.91;;;0.74;100.00
7058;BME280;3570;43.080;25.628;2023-01-27T03:55:47;-19476.81;;;0.81;100.00
7058;BME280;3570;43.080;25.628;2023-01-27T03:58:33;-19477.09;;;0.82;100.00
7058;BME280;3570;43.080;25.628;2023-01-27T04:01:20;-19479.31;;;0.89;100.00
7058;BME280;3570;43.080;25.628;2023-01-27T04:04:04;-19484.47;;;1.07;100.00
7058;BME280;3570;43.080;25.628;2023-01-27T04:07:07;-19478.72;;;0.87;100.00
7058;BME280;3570;43.080;25.628;2023-01-27T04:09:51;-19488.00;;;1.19;100.00
7058;BME280;3570;43.080;25.628;2023-01-27T04:12:34;-19480.06;;;0.92;100.00
7058;BME280;3570;43.080;25.628;2023-01-27T04:15:19;-19490.78;;;1.29;100.00
7058;BME280;3570;43.080;25.628;2023-01-27T04:18:03;-19490.34;;;1.27;100.00
7058;BME280;3570;43.080;25.628;2023-01-27T04:20:47;-19495.47;;;1.45;100.00
7058;BME280;3570;43.080;25.628;2023-01-27T04:23:31;-19487.84;;;1.19;100.00
7058;BME280;3570;43.080;25.628;2023-01-27T04:26:15;-19494.16;;;1.40;100.00
7058;BME280;3570;43.080;25.628;2023-01-27T04:29:02;-19496.66;;;1.49;100.00
7058;BME280;3570;43.080;25.628;2023-01-27T04:31:47;-19492.84;;;1.36;100.00
7058;BME280;3570;43.080;25.628;2023-01-27T04:34:31;-19486.06;;;1.13;100.00
7058;BME280;3570;43.080;25.628;2023-01-27T04:37:15;-19483.13;;;1.03;100.00
7058;BME280;3570;43.080;25.628;2023-01-27T04:40:00;-19485.03;;;1.09;100.00
7058;BME280;3570;43.080;25.628;2023-01-27T04:42:44;-19481.97;;;0.98;100.00
7058;BME280;3570;43.080;25.628;2023-01-27T04:45:28;-19476.09;;;0.78;100.00
7058;BME280;3570;43.080;25.628;2023-01-27T04:48:12;-19486.66;;;1.15;100.00
7058;BME280;3570;43.080;25.628;2023-01-27T04:50:56;-19486.81;;;1.15;100.00
7058;BME280;3570;43.080;25.628;2023-01-27T04:53:40;-19490.63;;;1.28;100.00
7058;BME280;3570;43.080;25.628;2023-01-27T04:56:30;-19494.31;;;1.41;100.00
7058;BME280;3570;43.080;25.628;2023-01-27T04:59:14;-19478.28;;;0.86;100.00
7058;BME280;3570;43.080;25.628;2023-01-27T05:01:58;-19480.94;;;0.95;100.00
7058;BME280;3570;43.080;25.628;2023-01-27T05:04:42;-19475.06;;;0.75;100.00
7058;BME280;3570;43.080;25.628;2023-01-27T05:07:26;-19482.53;;;1.01;100.00
7058;BME280;3570;43.080;25.628;2023-01-27T05:10:10;-19478.88;;;0.88;100.00
7058;BME280;3570;43.080;25.628;2023-01-27T05:12:54;-19481.66;;;0.98;100.00
7058;BME280;3570;43.080;25.628;2023-01-27T05:15:38;-19473.59;;;0.70;100.00
7058;BME280;3570;43.080;25.628;2023-01-27T05:18:22;-19471.38;;;0.62;100.00
7058;BME280;3570;43.080;25.628;2023-01-27T05:21:07;-19459.03;;;0.20;100.00
7058;BME280;3570;43.080;25.628;2023-01-27T05:23:54;-19476.38;;;0.79;100.00
7058;BME280;3570;43.080;25.628;2023-01-27T05:26:38;-19477.69;;;0.84;100.00
7058;BME280;3570;43.080;25.628;2023-01-27T05:29:23;-19467.56;;;0.49;100.00
7058;BME280;3570;43.080;25.628;2023-01-27T05:32:07;-19485.19;;;1.10;100.00
7058;BME280;3570;43.080;25.628;2023-01-27T05:34:51;-19487.25;;;1.17;100.00
7058;BME280;3570;43.080;25.628;2023-01-27T05:37:35;-19483.72;;;1.05;100.00
7058;BME280;3570;43.080;25.628;2023-01-27T05:40:19;-19486.66;;;1.15;100.00
7058;BME280;3570;43.080;25.628;2023-01-27T05:43:03;-19488.13;;;1.20;100.00
7058;BME280;3570;43.080;25.628;2023-01-27T05:45:47;-19484.59;;;1.08;100.00
7058;BME280;3570;43.080;25.628;2023-01-27T05:48:36;-19484.59;;;1.08;100.00
7058;BME280;3570;43.080;25.628;2023-01-27T05:51:22;-19480.94;;;0.95;100.00
7058;BME280;3570;43.080;25.628;2023-01-27T05:54:07;-19476.97;;;0.81;100.00
7058;BME280;3570;43.080;25.628;2023-01-27T05:56:51;-19468.88;;;0.54;100.00
7058;BME280;3570;43.080;25.628;2023-01-27T05:59:35;-19471.53;;;0.63;100.00
7058;BME280;3570;43.080;25.628;2023-01-27T06:02:19;-19477.56;;;0.83;100.00
7058;BME280;3570;43.080;25.628;2023-01-27T06:05:03;-19464.31;;;0.38;100.00
7058;BME280;3570;43.080;25.628;2023-01-27T06:07:47;-19470.66;;;0.60;100.00
7058;BME280;3570;43.080;25.628;2023-01-27T06:10:31;-19475.19;;;0.75;100.00
7058;BME280;3570;43.080;25.628;2023-01-27T06:13:21;-19469.91;;;0.57;100.00
7058;BME280;3570;43.080;25.628;2023-01-27T06:16:11;-19459.03;;;0.20;100.00
7058;BME280;3570;43.080;25.628;2023-01-27T06:18:56;-19471.09;;;0.61;100.00
7058;BME280;3570;43.080;25.628;2023-01-27T06:21:41;-19470.66;;;0.60;100.00
7058;BME280;3570;43.080;25.628;2023-01-27T06:24:26;-19475.78;;;0.77;100.00
7058;BME280;3570;43.080;25.628;2023-01-27T06:27:10;-19472.56;;;0.66;100.00
7058;BME280;3570;43.080;25.628;2023-01-27T06:29:54;-19469.31;;;0.55;100.00
7058;BME280;3570;43.080;25.628;2023-01-27T06:32:38;-19464.03;;;0.37;100.00
7058;BME280;3570;43.080;25.628;2023-01-27T06:35:22;-19469.63;;;0.56;100.00
7058;BME280;3570;43.080;25.628;2023-01-27T06:38:09;-19470.22;;;0.58;100.00
7058;BME280;3570;43.080;25.628;2023-01-27T06:40:53;-19471.53;;;0.63;100.00
7058;BME280;3570;43.080;25.628;2023-01-27T06:43:37;-19472.84;;;0.67;100.00
7058;BME280;3570;43.080;25.628;2023-01-27T06:46:21;-19472.56;;;0.66;100.00
7058;BME280;3570;43.080;25.628;2023-01-27T06:49:05;-19473.72;;;0.70;100.00
7058;BME280;3570;43.080;25.628;2023-01-27T06:51:49;-19475.06;;;0.75;100.00
7058;BME280;3570;43.080;25.628;2023-01-27T06:54:33;-19468.16;;;0.51;100.00
7058;BME280;3570;43.080;25.628;2023-01-27T06:57:17;-19476.97;;;0.81;100.00
7058;BME280;3570;43.080;25.628;2023-01-27T07:00:03;-19468.72;;;0.53;100.00
7058;BME280;3570;43.080;25.628;2023-01-27T07:02:47;-19476.66;;;0.80;100.00
7058;BME280;3570;43.080;25.628;2023-01-27T07:05:32;-19469.75;;;0.57;100.00
7058;BME280;3570;43.080;25.628;2023-01-27T07:08:16;-19476.53;;;0.80;100.00
7058;BME280;3570;43.080;25.628;2023-01-27T07:11:02;-19474.47;;;0.73;100.00
7058;BME280;3570;43.080;25.628;2023-01-27T07:13:47;-19482.09;;;0.99;100.00
7058;BME280;3570;43.080;25.628;2023-01-27T07:16:30;-19480.34;;;0.93;100.00
7058;BME280;3570;43.080;25.628;2023-01-27T07:19:15;-19478.13;;;0.85;100.00
7058;BME280;3570;43.080;25.628;2023-01-27T07:21:59;-19480.78;;;0.94;100.00
7058;BME280;3570;43.080;25.628;2023-01-27T07:24:43;-19474.31;;;0.72;100.00
7058;BME280;3570;43.080;25.628;2023-01-27T07:27:27;-19478.59;;;0.87;100.00
7058;BME280;3570;43.080;25.628;2023-01-27T07:30:12;-19481.22;;;0.96;100.00
7058;BME280;3570;43.080;25.628;2023-01-27T07:33:07;-19476.81;;;0.81;100.00
7058;BME280;3570;43.080;25.628;2023-01-27T07:35:51;-19481.38;;;0.97;100.00
7058;BME280;3570;43.080;25.628;2023-01-27T07:38:35;-19483.13;;;1.03;100.00
7058;BME280;3570;43.080;25.628;2023-01-27T07:41:19;-19473.13;;;0.68;100.00
7058;BME280;3570;43.080;25.628;2023-01-27T07:44:03;-19479.16;;;0.89;100.00
7058;BME280;3570;43.080;25.628;2023-01-27T07:46:47;-19480.50;;;0.93;100.00
7058;BME280;3570;43.080;25.628;2023-01-27T07:49:31;-19483.28;;;1.03;100.00
7058;BME280;3570;43.080;25.628;2023-01-27T07:52:15;-19483.00;;;1.02;100.00
7058;BME280;3570;43.080;25.628;2023-01-27T07:54:59;-19482.84;;;1.02;100.00
7058;BME280;3570;43.080;25.628;2023-01-27T07:57:43;-19485.50;;;1.11;100.00
7058;BME280;3570;43.080;25.628;2023-01-27T08:00:28;-19485.78;;;1.12;100.00
7058;BME280;3570;43.080;25.628;2023-01-27T08:03:22;-19479.31;;;0.89;100.00
7058;BME280;3570;43.080;25.628;2023-01-27T08:06:10;-19485.19;;;1.10;100.00
7058;BME280;3570;43.080;25.628;2023-01-27T08:08:55;-19484.03;;;1.06;100.00
7058;BME280;3570;43.080;25.628;2023-01-27T08:11:39;-19489.16;;;1.23;100.00
7058;BME280;3570;43.080;25.628;2023-01-27T08:14:23;-19491.94;;;1.33;100.00
7058;BME280;3570;43.080;25.628;2023-01-27T08:17:07;-19472.84;;;0.67;100.00
7058;BME280;3570;43.080;25.628;2023-01-27T08:19:51;-19492.09;;;1.33;100.00
7058;BME280;3570;43.080;25.628;2023-01-27T08:22:35;-19486.97;;;1.16;100.00
7058;BME280;3570;43.080;25.628;2023-01-27T08:25:20;-19500.03;;;1.60;100.00
7058;BME280;3570;43.080;25.628;2023-01-27T08:28:04;-19500.91;;;1.63;100.00
7058;BME280;3570;43.080;25.628;2023-01-27T08:30:48;-19491.66;;;1.32;100.00
7058;BME280;3570;43.080;25.628;2023-01-27T08:33:35;-19495.91;;;1.46;100.00
7058;BME280;3570;43.080;25.628;2023-01-27T08:36:21;-19491.38;;;1.31;100.00
7058;BME280;3570;43.080;25.628;2023-01-27T08:39:06;-19491.81;;;1.32;100.00
7058;BME280;3570;43.080;25.628;2023-01-27T08:41:50;-19500.91;;;1.63;100.00
7058;BME280;3570;43.080;25.628;2023-01-27T08:44:34;-19502.25;;;1.68;100.00
7058;BME280;3570;43.080;25.628;2023-01-27T08:47:18;-19501.06;;;1.64;100.00
7058;BME280;3570;43.080;25.628;2023-01-27T08:50:02;-19495.03;;;1.43;100.00
7058;BME280;3570;43.080;25.628;2023-01-27T08:52:46;-19492.84;;;1.36;100.00
7058;BME280;3570;43.080;25.628;2023-01-27T08:55:31;-19494.44;;;1.41;100.00
7058;BME280;3570;43.080;25.628;2023-01-27T08:58:16;-19493.28;;;1.37;100.00
7058;BME280;3570;43.080;25.628;2023-01-27T09:01:01;-19494.00;;;1.40;100.00
7058;BME280;3570;43.080;25.628;2023-01-27T09:03:46;-19489.16;;;1.23;100.00
7058;BME280;3570;43.080;25.628;2023-01-27T09:06:29;-19474.03;;;0.71;100.00
7058;BME280;3570;43.080;25.628;2023-01-27T09:09:13;-19490.34;;;1.27;100.00
7058;BME280;3570;43.080;25.628;2023-01-27T09:11:57;-19491.38;;;1.31;100.00
7058;BME280;3570;43.080;25.628;2023-01-27T09:14:41;-19489.31;;;1.24;100.00
7058;BME280;3570;43.080;25.628;2023-01-27T09:17:26;-19488.72;;;1.22;100.00
7058;BME280;3570;43.080;25.628;2023-01-27T09:20:11;-19481.81;;;0.98;100.00
7058;BME280;3570;43.080;25.628;2023-01-27T09:22:55;-19491.38;;;1.31;100.00
7058;BME280;3570;43.080;25.628;2023-01-27T09:25:39;-19485.19;;;1.10;100.00
7058;BME280;3570;43.080;25.628;2023-01-27T09:28:23;-19485.50;;;1.11;100.00
7058;BME280;3570;43.080;25.628;2023-01-27T09:31:07;-19489.00;;;1.23;100.00
7058;BME280;3570;43.080;25.628;2023-01-27T09:33:54;-19492.84;;;1.36;100.00
7058;BME280;3570;43.080;25.628;2023-01-27T09:36:45;-19488.72;;;1.22;100.00
7058;BME280;3570;43.080;25.628;2023-01-27T09:39:31;-19494.59;;;1.42;100.00
7058;BME280;3570;43.080;25.628;2023-01-27T09:42:35;-19498.41;;;1.55;100.00
7058;BME280;3570;43.080;25.628;2023-01-27T09:52:00;-19495.47;;;1.45;100.00
7058;BME280;3570;43.080;25.628;2023-01-27T10:01:05;-19495.47;;;1.45;100.00
7058;BME280;3570;43.080;25.628;2023-01-27T10:07:23;-19493.56;;;1.38;100.00
7058;BME280;3570;43.080;25.628;2023-01-27T10:13:12;-19492.53;;;1.35;100.00
7058;BME280;3570;43.080;25.628;2023-01-27T10:19:23;-19483.13;;;1.03;100.00
7058;BME280;3570;43.080;25.628;2023-01-27T10:25:15;-19487.84;;;1.19;100.00
7058;BME280;3570;43.080;25.628;2023-01-27T10:28:10;-19493.13;;;1.37;100.00
7058;BME280;3570;43.080;25.628;2023-01-27T10:36:47;-19489.91;;;1.26;100.00
7058;BME280;3570;43.080;25.628;2023-01-27T10:39:59;-19492.53;;;1.35;100.00
7058;BME280;3570;43.080;25.628;2023-01-27T10:49:18;-19491.22;;;1.30;100.00
7058;BME280;3570;43.080;25.628;2023-01-27T10:52:15;-19489.16;;;1.23;100.00
7058;BME280;3570;43.080;25.628;2023-01-27T10:55:14;-19481.22;;;0.96;100.00
7058;BME280;3570;43.080;25.628;2023-01-27T10:58:16;-19488.56;;;1.21;100.00
7058;BME280;3570;43.080;25.628;2023-01-27T11:01:04;-19488.13;;;1.20;100.00
7058;BME280;3570;43.080;25.628;2023-01-27T11:04:08;-19488.44;;;1.21;100.00
7058;BME280;3570;43.080;25.628;2023-01-27T11:06:55;-19486.22;;;1.13;100.00
7058;BME280;3570;43.080;25.628;2023-01-27T11:09:47;-19491.66;;;1.32;100.00
7058;BME280;3570;43.080;25.628;2023-01-27T11:12:38;-19486.66;;;1.15;100.00
7058;BME280;3570;43.080;25.628;2023-01-27T11:15:32;-19495.63;;;1.45;100.00
7058;BME280;3570;43.080;25.628;2023-01-27T11:18:20;-19496.06;;;1.47;100.00
7058;BME280;3570;43.080;25.628;2023-01-27T11:21:14;-19494.31;;;1.41;100.00
7058;BME280;3570;43.080;25.628;2023-01-27T11:24:13;-19496.94;;;1.50;100.00
7058;BME280;3570;43.080;25.628;2023-01-27T11:27:10;-19496.06;;;1.47;100.00
7058;BME280;3570;43.080;25.628;2023-01-27T11:30:07;-19490.47;;;1.28;100.00
7058;BME280;3570;43.080;25.628;2023-01-27T11:33:10;-19493.44;;;1.38;100.00
7058;BME280;3570;43.080;25.628;2023-01-27T11:35:56;-19486.38;;;1.14;100.00
7058;BME280;3570;43.080;25.628;2023-01-27T11:38:40;-19494.59;;;1.42;100.00
7058;BME280;3570;43.080;25.628;2023-01-27T11:41:24;-19495.19;;;1.44;100.00
7058;BME280;3570;43.080;25.628;2023-01-27T11:44:20;-19497.25;;;1.51;100.00
7058;BME280;3570;43.080;25.628;2023-01-27T11:47:06;-19492.53;;;1.35;100.00
7058;BME280;3570;43.080;25.628;2023-01-27T11:49:52;-19489.00;;;1.23;100.00
7058;BME280;3570;43.080;25.628;2023-01-27T11:52:37;-19495.91;;;1.46;100.00
7058;BME280;3570;43.080;25.628;2023-01-27T11:55:27;-19496.94;;;1.50;100.00
7058;BME280;3570;43.080;25.628;2023-01-27T11:58:35;-19499.88;;;1.60;100.00
7058;BME280;3570;43.080;25.628;2023-01-27T12:01:47;-19500.03;;;1.60;100.00
7058;BME280;3570;43.080;25.628;2023-01-27T12:07:54;-19500.19;;;1.61;100.00
7058;BME280;3570;43.080;25.628;2023-01-27T12:10:40;-19501.34;;;1.65;100.00
7058;BME280;3570;43.080;25.628;2023-01-27T12:13:24;-19502.38;;;1.68;100.00
7058;BME280;3570;43.080;25.628;2023-01-27T12:16:09;-19500.91;;;1.63;100.00
7058;BME280;3570;43.080;25.628;2023-01-27T12:19:19;-19497.38;;;1.51;100.00
7058;BME280;3570;43.080;25.628;2023-01-27T12:22:14;-19500.47;;;1.62;100.00
7058;BME280;3570;43.080;25.628;2023-01-27T12:25:03;-19507.22;;;1.85;100.00
7058;BME280;3570;43.080;25.628;2023-01-27T12:27:56;-19501.94;;;1.67;100.00
7058;BME280;3570;43.080;25.628;2023-01-27T12:30:40;-19505.16;;;1.78;100.00
7058;BME280;3570;43.080;25.628;2023-01-27T12:33:31;-19496.06;;;1.47;100.00
7058;BME280;3570;43.080;25.628;2023-01-27T12:36:19;-19502.81;;;1.70;100.00
7058;BME280;3570;43.080;25.628;2023-01-27T12:39:05;-19502.97;;;1.70;100.00
7058;BME280;3570;43.080;25.628;2023-01-27T12:41:51;-19504.59;;;1.76;100.00
7058;BME280;3570;43.080;25.628;2023-01-27T12:44:42;-19503.13;;;1.71;100.00
7058;BME280;3570;43.080;25.628;2023-01-27T12:47:28;-19499.44;;;1.58;100.00
7058;BME280;3570;43.080;25.628;2023-01-27T12:50:19;-19501.34;;;1.65;100.00
7058;BME280;3570;43.080;25.628;2023-01-27T12:53:15;-19492.84;;;1.36;100.00
7058;BME280;3570;43.080;25.628;2023-01-27T13:01:37;-19500.31;;;1.61;100.00
7058;BME280;3570;43.080;25.628;2023-01-27T13:04:24;-19495.78;;;1.46;100.00
7058;BME280;3570;43.080;25.628;2023-01-27T13:07:39;-19490.91;;;1.29;100.00
7058;BME280;3570;43.080;25.628;2023-01-27T13:10:25;-19490.78;;;1.29;100.00
7058;BME280;3570;43.080;25.628;2023-01-27T13:13:16;-19496.66;;;1.49;100.00
7058;BME280;3570;43.080;25.628;2023-01-27T13:16:07;-19493.88;;;1.39;100.00
7058;BME280;3570;43.080;25.628;2023-01-27T13:18:59;-19493.56;;;1.38;100.00
7058;BME280;3570;43.080;25.628;2023-01-27T13:21:47;-19494.59;;;1.42;100.00
7058;BME280;3570;43.080;25.628;2023-01-27T13:24:36;-19502.53;;;1.69;100.00
7058;BME280;3570;43.080;25.628;2023-01-27T13:27:21;-19499.59;;;1.59;100.00
7058;BME280;3570;43.080;25.628;2023-01-27T13:30:29;-19505.75;;;1.80;100.00
7058;BME280;3570;43.080;25.628;2023-01-27T13:36:06;-19504.44;;;1.75;100.00
7058;BME280;3570;43.080;25.628;2023-01-27T13:42:18;-19507.22;;;1.85;100.00
7058;BME280;3570;43.080;25.628;2023-01-27T13:45:04;-19499.88;;;1.60;100.00
7058;BME280;3570;43.080;25.628;2023-01-27T13:50:41;-19494.16;;;1.40;100.00
7058;BME280;3570;43.080;25.628;2023-01-27T13:53:26;-19494.44;;;1.41;100.00
7058;BME280;3570;43.080;25.628;2023-01-27T13:56:15;-19491.22;;;1.30;100.00
7058;BME280;3570;43.080;25.628;2023-01-27T14:02:28;-19494.59;;;1.42;100.00
7058;BME280;3570;43.080;25.628;2023-01-27T14:05:42;-19491.50;;;1.31;100.00
7058;BME280;3570;43.080;25.628;2023-01-27T14:09:35;-19488.72;;;1.22;100.00
7058;BME280;3570;43.080;25.628;2023-01-27T14:27:18;-19486.38;;;1.14;100.00
7058;BME280;3570;43.080;25.628;2023-01-27T14:30:08;-19489.00;;;1.23;100.00
7058;BME280;3570;43.080;25.628;2023-01-27T14:33:08;-19477.56;;;0.83;100.00
7058;BME280;3570;43.080;25.628;2023-01-27T14:39:19;-19485.03;;;1.09;100.00
7058;BME280;3570;43.080;25.628;2023-01-27T14:42:21;-19474.63;;;0.73;100.00
7058;BME280;3570;43.080;25.628;2023-01-27T14:45:18;-19483.28;;;1.03;100.00
7058;BME280;3570;43.080;25.628;2023-01-27T14:51:26;-19470.22;;;0.58;100.00
7058;BME280;3570;43.080;25.628;2023-01-27T14:57:34;-19477.56;;;0.83;100.00
7058;BME280;3570;43.080;25.628;2023-01-27T15:07:17;-19479.47;;;0.90;100.00
7058;BME280;3570;43.080;25.628;2023-01-27T15:25:43;-19475.19;;;0.75;100.00
7058;BME280;3570;43.080;25.628;2023-01-27T15:28:31;-19470.50;;;0.59;100.00
7058;BME280;3570;43.080;25.628;2023-01-27T15:37:11;-19476.66;;;0.80;100.00
7058;BME280;3570;43.080;25.628;2023-01-27T15:40:13;-19475.50;;;0.76;100.00
7058;BME280;3570;43.080;25.628;2023-01-27T15:45:44;-19467.56;;;0.49;100.00
7058;BME280;3570;43.080;25.628;2023-01-27T15:48:32;-19463.72;;;0.36;100.00
7058;BME280;3570;43.080;25.628;2023-01-27T15:51:18;-19471.97;;;0.64;100.00
7058;BME280;3570;43.080;25.628;2023-01-27T15:54:12;-19472.41;;;0.66;100.00
7058;BME280;3570;43.080;25.628;2023-01-27T15:57:02;-19472.56;;;0.66;100.00
7058;BME280;3570;43.080;25.628;2023-01-27T15:59:48;-19464.19;;;0.38;100.00
7058;BME280;3570;43.080;25.628;2023-01-27T16:02:38;-19470.06;;;0.58;100.00
7058;BME280;3570;43.080;25.628;2023-01-27T16:05:35;-19470.66;;;0.60;100.00
7058;BME280;3570;43.080;25.628;2023-01-27T16:08:23;-19470.50;;;0.59;100.00
7058;BME280;3570;43.080;25.628;2023-01-27T16:11:41;-19471.97;;;0.64;100.00
7058;BME280;3570;43.080;25.628;2023-01-27T16:14:37;-19463.44;;;0.35;100.00
7058;BME280;3570;43.080;25.628;2023-01-27T16:17:23;-19472.41;;;0.66;100.00
7058;BME280;3570;43.080;25.628;2023-01-27T16:20:22;-19462.13;;;0.31;100.00
7058;BME280;3570;43.080;25.628;2023-01-27T16:23:23;-19474.31;;;0.72;100.00
7058;BME280;3570;43.080;25.628;2023-01-27T16:26:20;-19474.63;;;0.73;100.00
7058;BME280;3570;43.080;25.628;2023-01-27T16:31:57;-19471.97;;;0.64;100.00
7058;BME280;3570;43.080;25.628;2023-01-27T16:35:02;-19471.38;;;0.62;100.00
7058;BME280;3570;43.080;25.628;2023-01-27T16:38:28;-19474.31;;;0.72;100.00
7058;BME280;3570;43.080;25.628;2023-01-27T16:41:28;-19466.38;;;0.45;100.00
7058;BME280;3570;43.080;25.628;2023-01-27T16:44:21;-19471.66;;;0.63;100.00
7058;BME280;3570;43.080;25.628;2023-01-27T16:47:24;-19471.38;;;0.62;100.00
7058;BME280;3570;43.080;25.628;2023-01-27T16:50:34;-19471.66;;;0.63;100.00
7058;BME280;3570;43.080;25.628;2023-01-27T16:53:22;-19473.00;;;0.68;100.00
7058;BME280;3570;43.080;25.628;2023-01-27T16:56:20;-19472.84;;;0.67;100.00